sensor_id;sensor_type;location;lat;lon;timestamp;P1;durP1;ratioP1;P2;durP2;ratioP2
39078;SDS011;24829;49.208;12.080;2023-02-15T00:01:36;81.93;;;17.75;;
39078;SDS011;24829;49.208;12.080;2023-02-15T00:04:02;337.38;;;27.90;;
39078;SDS011;24829;49.208;12.080;2023-02-15T00:06:29;167.50;;;17.92;;
39078;SDS011;24829;49.208;12.080;2023-02-15T00:08:55;239.68;;;22.45;;
39078;SDS011;24829;49.208;12.080;2023-02-15T00:11:21;151.25;;;17.52;;
39078;SDS011;24829;49.208;12.080;2023-02-15T00:14:08;243.80;;;24.48;;
39078;SDS011;24829;49.208;12.080;2023-02-15T00:16:36;130.00;;;16.77;;
39078;SDS011;24829;49.208;12.080;2023-02-15T00:19:03;116.40;;;17.77;;
39078;SDS011;24829;49.208;12.080;2023-02-15T00:21:29;236.80;;;23.88;;
39078;SDS011;24829;49.208;12.080;2023-02-15T00:23:57;91.30;;;16.85;;
39078;SDS011;24829;49.208;12.080;2023-02-15T00:26:24;119.70;;;19.20;;
39078;SDS011;24829;49.208;12.080;2023-02-15T00:28:49;109.43;;;15.95;;
39078;SDS011;24829;49.208;12.080;2023-02-15T00:31:15;170.93;;;17.48;;
39078;SDS011;24829;49.208;12.080;2023-02-15T00:33:40;119.25;;;15.90;;
39078;SDS011;24829;49.208;12.080;2023-02-15T00:36:07;152.52;;;17.25;;
39078;SDS011;24829;49.208;12.080;2023-02-15T00:38:34;154.20;;;17.92;;
39078;SDS011;24829;49.208;12.080;2023-02-15T00:41:01;91.10;;;16.60;;
39078;SDS011;24829;49.208;12.080;2023-02-15T00:43:28;171.43;;;21.02;;
39078;SDS011;24829;49.208;12.080;2023-02-15T00:45:55;92.07;;;16.45;;
39078;SDS011;24829;49.208;12.080;2023-02-15T00:48:21;181.27;;;19.92;;
39078;SDS011;24829;49.208;12.080;2023-02-15T00:50:48;127.68;;;19.75;;
39078;SDS011;24829;49.208;12.080;2023-02-15T00:53:16;110.97;;;18.80;;
39078;SDS011;24829;49.208;12.080;2023-02-15T00:55:42;62.42;;;16.50;;
39078;SDS011;24829;49.208;12.080;2023-02-15T00:58:08;118.72;;;18.27;;
39078;SDS011;24829;49.208;12.080;2023-02-15T01:00:35;126.72;;;18.65;;
39078;SDS011;24829;49.208;12.080;2023-02-15T01:03:01;76.03;;;15.70;;
39078;SDS011;24829;49.208;12.080;2023-02-15T01:05:27;89.28;;;17.67;;
39078;SDS011;24829;49.208;12.080;2023-02-15T01:07:54;75.10;;;17.10;;
39078;SDS011;24829;49.208;12.080;2023-02-15T01:10:20;56.60;;;14.13;;
39078;SDS011;24829;49.208;12.080;2023-02-15T01:12:46;113.47;;;17.42;;
39078;SDS011;24829;49.208;12.080;2023-02-15T01:15:11;118.88;;;13.98;;
39078;SDS011;24829;49.208;12.080;2023-02-15T01:17:37;135.15;;;16.98;;
39078;SDS011;24829;49.208;12.080;2023-02-15T01:20:02;178.68;;;19.67;;
39078;SDS011;24829;49.208;12.080;2023-02-15T01:22:28;94.07;;;15.18;;
39078;SDS011;24829;49.208;12.080;2023-02-15T01:24:54;120.03;;;18.98;;
39078;SDS011;24829;49.208;12.080;2023-02-15T01:27:19;123.53;;;17.23;;
39078;SDS011;24829;49.208;12.080;2023-02-15T01:29:45;164.88;;;20.52;;
39078;SDS011;24829;49.208;12.080;2023-02-15T01:32:12;63.10;;;14.55;;
39078;SDS011;24829;49.208;12.080;2023-02-15T01:34:37;49.58;;;13.48;;
39078;SDS011;24829;49.208;12.080;2023-02-15T01:37:03;96.57;;;16.23;;
39078;SDS011;24829;49.208;12.080;2023-02-15T01:39:28;102.85;;;15.05;;
39078;SDS011;24829;49.208;12.080;2023-02-15T01:41:54;84.88;;;13.75;;
39078;SDS011;24829;49.208;12.080;2023-02-15T01:44:40;366.90;;;28.80;;
39078;SDS011;24829;49.208;12.080;2023-02-15T01:47:12;348.35;;;29.08;;
39078;SDS011;24829;49.208;12.080;2023-02-15T01:49:41;301.80;;;25.77;;
39078;SDS011;24829;49.208;12.080;2023-02-15T01:52:10;112.72;;;15.55;;
39078;SDS011;24829;49.208;12.080;2023-02-15T01:54:39;177.65;;;18.13;;
39078;SDS011;24829;49.208;12.080;2023-02-15T01:57:10;295.33;;;21.55;;
39078;SDS011;24829;49.208;12.080;2023-02-15T01:59:38;243.25;;;22.58;;
39078;SDS011;24829;49.208;12.080;2023-02-15T02:02:07;85.55;;;12.90;;
39078;SDS011;24829;49.208;12.080;2023-02-15T02:04:41;90.32;;;13.55;;
39078;SDS011;24829;49.208;12.080;2023-02-15T02:07:12;162.85;;;15.48;;
39078;SDS011;24829;49.208;12.080;2023-02-15T02:09:41;174.57;;;16.63;;
39078;SDS011;24829;49.208;12.080;2023-02-15T02:12:07;150.82;;;17.70;;
39078;SDS011;24829;49.208;12.080;2023-02-15T02:14:34;175.40;;;19.15;;
39078;SDS011;24829;49.208;12.080;2023-02-15T02:17:08;120.20;;;16.92;;
39078;SDS011;24829;49.208;12.080;2023-02-15T02:33:04;69.93;;;14.07;;
39078;SDS011;24829;49.208;12.080;2023-02-15T02:41:35;209.63;;;19.55;;
39078;SDS011;24829;49.208;12.080;2023-02-15T02:44:06;240.43;;;24.33;;
39078;SDS011;24829;49.208;12.080;2023-02-15T02:46:55;298.65;;;28.55;;
39078;SDS011;24829;49.208;12.080;2023-02-15T02:49:43;353.03;;;30.23;;
39078;SDS011;24829;49.208;12.080;2023-02-15T02:55:16;285.58;;;24.50;;
39078;SDS011;24829;49.208;12.080;2023-02-15T02:57:52;114.40;;;20.13;;
39078;SDS011;24829;49.208;12.080;2023-02-15T03:00:27;46.85;;;15.25;;
39078;SDS011;24829;49.208;12.080;2023-02-15T03:03:02;109.75;;;20.95;;
39078;SDS011;24829;49.208;12.080;2023-02-15T03:05:31;105.05;;;16.98;;
39078;SDS011;24829;49.208;12.080;2023-02-15T03:08:00;110.10;;;16.45;;
39078;SDS011;24829;49.208;12.080;2023-02-15T03:10:31;144.85;;;17.30;;
39078;SDS011;24829;49.208;12.080;2023-02-15T03:12:59;112.63;;;17.55;;
39078;SDS011;24829;49.208;12.080;2023-02-15T03:15:29;136.30;;;21.17;;
39078;SDS011;24829;49.208;12.080;2023-02-15T03:18:20;108.00;;;21.08;;
39078;SDS011;24829;49.208;12.080;2023-02-15T03:20:50;84.30;;;18.40;;
39078;SDS011;24829;49.208;12.080;2023-02-15T03:23:17;151.30;;;31.17;;
39078;SDS011;24829;49.208;12.080;2023-02-15T03:25:49;135.40;;;24.20;;
39078;SDS011;24829;49.208;12.080;2023-02-15T03:28:25;144.40;;;24.77;;
39078;SDS011;24829;49.208;12.080;2023-02-15T03:30:57;123.50;;;19.30;;
39078;SDS011;24829;49.208;12.080;2023-02-15T03:33:27;89.25;;;14.60;;
39078;SDS011;24829;49.208;12.080;2023-02-15T03:35:57;63.00;;;13.93;;
39078;SDS011;24829;49.208;12.080;2023-02-15T03:38:43;85.55;;;15.77;;
39078;SDS011;24829;49.208;12.080;2023-02-15T03:41:16;79.23;;;15.00;;
39078;SDS011;24829;49.208;12.080;2023-02-15T03:51:50;78.10;;;14.43;;
39078;SDS011;24829;49.208;12.080;2023-02-15T03:54:21;40.33;;;12.98;;
39078;SDS011;24829;49.208;12.080;2023-02-15T03:57:09;38.83;;;12.55;;
39078;SDS011;24829;49.208;12.080;2023-02-15T03:59:55;75.70;;;15.00;;
39078;SDS011;24829;49.208;12.080;2023-02-15T04:02:47;81.45;;;15.02;;
39078;SDS011;24829;49.208;12.080;2023-02-15T04:05:24;86.75;;;13.85;;
39078;SDS011;24829;49.208;12.080;2023-02-15T04:07:50;84.35;;;14.57;;
39078;SDS011;24829;49.208;12.080;2023-02-15T04:10:15;82.28;;;16.27;;
39078;SDS011;24829;49.208;12.080;2023-02-15T04:12:59;40.25;;;12.32;;
39078;SDS011;24829;49.208;12.080;2023-02-15T04:15:25;264.60;;;20.60;;
39078;SDS011;24829;49.208;12.080;2023-02-15T04:18:09;296.88;;;24.48;;
39078;SDS011;24829;49.208;12.080;2023-02-15T04:20:35;228.15;;;21.77;;
39078;SDS011;24829;49.208;12.080;2023-02-15T04:23:19;87.25;;;13.63;;
39078;SDS011;24829;49.208;12.080;2023-02-15T04:26:03;236.52;;;23.13;;
39078;SDS011;24829;49.208;12.080;2023-02-15T04:28:30;104.93;;;16.27;;
39078;SDS011;24829;49.208;12.080;2023-02-15T04:30:55;173.98;;;19.73;;
39078;SDS011;24829;49.208;12.080;2023-02-15T04:33:21;127.60;;;16.30;;
39078;SDS011;24829;49.208;12.080;2023-02-15T04:35:47;96.45;;;16.02;;
39078;SDS011;24829;49.208;12.080;2023-02-15T04:38:12;153.77;;;19.60;;
39078;SDS011;24829;49.208;12.080;2023-02-15T04:40:39;115.25;;;17.55;;
39078;SDS011;24829;49.208;12.080;2023-02-15T04:43:04;284.52;;;22.85;;
39078;SDS011;24829;49.208;12.080;2023-02-15T04:45:30;308.92;;;26.95;;
39078;SDS011;24829;49.208;12.080;2023-02-15T04:47:55;185.55;;;19.38;;
39078;SDS011;24829;49.208;12.080;2023-02-15T04:50:21;311.80;;;24.67;;
39078;SDS011;24829;49.208;12.080;2023-02-15T04:52:46;57.25;;;15.18;;
39078;SDS011;24829;49.208;12.080;2023-02-15T04:55:12;217.50;;;23.13;;
39078;SDS011;24829;49.208;12.080;2023-02-15T04:57:39;197.43;;;20.50;;
39078;SDS011;24829;49.208;12.080;2023-02-15T05:00:04;249.15;;;24.70;;
39078;SDS011;24829;49.208;12.080;2023-02-15T05:02:30;270.85;;;27.48;;
39078;SDS011;24829;49.208;12.080;2023-02-15T05:04:56;91.25;;;17.30;;
39078;SDS011;24829;49.208;12.080;2023-02-15T05:07:22;75.10;;;15.32;;
39078;SDS011;24829;49.208;12.080;2023-02-15T05:09:47;128.65;;;17.83;;
39078;SDS011;24829;49.208;12.080;2023-02-15T05:12:13;47.10;;;14.90;;
39078;SDS011;24829;49.208;12.080;2023-02-15T05:14:38;371.10;;;31.15;;
39078;SDS011;24829;49.208;12.080;2023-02-15T05:17:04;103.32;;;15.48;;
39078;SDS011;24829;49.208;12.080;2023-02-15T05:19:30;303.25;;;25.90;;
39078;SDS011;24829;49.208;12.080;2023-02-15T05:21:56;355.30;;;25.27;;
39078;SDS011;24829;49.208;12.080;2023-02-15T05:24:21;205.73;;;19.83;;
39078;SDS011;24829;49.208;12.080;2023-02-15T05:27:05;167.18;;;19.00;;
39078;SDS011;24829;49.208;12.080;2023-02-15T05:29:49;314.55;;;24.13;;
39078;SDS011;24829;49.208;12.080;2023-02-15T05:32:15;63.00;;;15.40;;
39078;SDS011;24829;49.208;12.080;2023-02-15T05:34:40;52.05;;;14.30;;
39078;SDS011;24829;49.208;12.080;2023-02-15T05:37:06;215.90;;;23.52;;
39078;SDS011;24829;49.208;12.080;2023-02-15T05:39:32;105.90;;;17.52;;
39078;SDS011;24829;49.208;12.080;2023-02-15T05:41:58;138.45;;;18.77;;
39078;SDS011;24829;49.208;12.080;2023-02-15T05:44:25;113.00;;;18.67;;
39078;SDS011;24829;49.208;12.080;2023-02-15T05:46:50;67.13;;;14.52;;
39078;SDS011;24829;49.208;12.080;2023-02-15T05:49:16;92.10;;;16.60;;
39078;SDS011;24829;49.208;12.080;2023-02-15T05:51:41;55.83;;;14.82;;
39078;SDS011;24829;49.208;12.080;2023-02-15T05:54:07;76.15;;;15.63;;
39078;SDS011;24829;49.208;12.080;2023-02-15T05:56:32;103.90;;;18.23;;
39078;SDS011;24829;49.208;12.080;2023-02-15T05:58:58;176.35;;;19.88;;
39078;SDS011;24829;49.208;12.080;2023-02-15T06:01:23;126.40;;;18.50;;
39078;SDS011;24829;49.208;12.080;2023-02-15T06:03:49;143.02;;;15.85;;
39078;SDS011;24829;49.208;12.080;2023-02-15T06:06:15;93.03;;;15.57;;
39078;SDS011;24829;49.208;12.080;2023-02-15T06:08:41;144.90;;;17.40;;
39078;SDS011;24829;49.208;12.080;2023-02-15T06:11:06;84.95;;;14.32;;
39078;SDS011;24829;49.208;12.080;2023-02-15T06:13:32;96.65;;;15.73;;
39078;SDS011;24829;49.208;12.080;2023-02-15T06:15:59;128.15;;;42.03;;
39078;SDS011;24829;49.208;12.080;2023-02-15T06:18:25;76.32;;;20.60;;
39078;SDS011;24829;49.208;12.080;2023-02-15T06:20:50;206.75;;;22.95;;
39078;SDS011;24829;49.208;12.080;2023-02-15T06:23:17;162.55;;;17.90;;
39078;SDS011;24829;49.208;12.080;2023-02-15T06:25:43;58.75;;;15.57;;
39078;SDS011;24829;49.208;12.080;2023-02-15T06:28:10;151.35;;;22.70;;
39078;SDS011;24829;49.208;12.080;2023-02-15T06:30:35;143.73;;;19.80;;
39078;SDS011;24829;49.208;12.080;2023-02-15T06:33:01;109.68;;;18.65;;
39078;SDS011;24829;49.208;12.080;2023-02-15T06:35:27;133.55;;;20.85;;
39078;SDS011;24829;49.208;12.080;2023-02-15T06:37:52;140.73;;;19.35;;
39078;SDS011;24829;49.208;12.080;2023-02-15T06:40:18;176.50;;;20.23;;
39078;SDS011;24829;49.208;12.080;2023-02-15T06:42:44;148.57;;;17.20;;
39078;SDS011;24829;49.208;12.080;2023-02-15T06:45:09;125.68;;;17.83;;
39078;SDS011;24829;49.208;12.080;2023-02-15T06:47:35;106.63;;;16.42;;
39078;SDS011;24829;49.208;12.080;2023-02-15T06:50:01;293.25;;;24.65;;
39078;SDS011;24829;49.208;12.080;2023-02-15T06:52:27;296.83;;;26.67;;
39078;SDS011;24829;49.208;12.080;2023-02-15T06:54:54;181.50;;;24.05;;
39078;SDS011;24829;49.208;12.080;2023-02-15T06:57:20;289.67;;;26.45;;
39078;SDS011;24829;49.208;12.080;2023-02-15T06:59:46;178.82;;;20.65;;
39078;SDS011;24829;49.208;12.080;2023-02-15T07:02:11;109.20;;;20.67;;
39078;SDS011;24829;49.208;12.080;2023-02-15T07:04:37;129.77;;;21.85;;
39078;SDS011;24829;49.208;12.080;2023-02-15T07:07:02;100.15;;;20.42;;
39078;SDS011;24829;49.208;12.080;2023-02-15T07:09:28;207.88;;;21.60;;
39078;SDS011;24829;49.208;12.080;2023-02-15T07:11:54;174.05;;;17.95;;
39078;SDS011;24829;49.208;12.080;2023-02-15T07:14:38;203.02;;;19.48;;
39078;SDS011;24829;49.208;12.080;2023-02-15T07:17:05;179.55;;;26.13;;
39078;SDS011;24829;49.208;12.080;2023-02-15T07:19:31;171.32;;;23.88;;
39078;SDS011;24829;49.208;12.080;2023-02-15T07:21:56;170.75;;;24.15;;
39078;SDS011;24829;49.208;12.080;2023-02-15T07:24:22;156.35;;;22.17;;
39078;SDS011;24829;49.208;12.080;2023-02-15T07:26:47;68.93;;;19.42;;
39078;SDS011;24829;49.208;12.080;2023-02-15T07:29:13;137.50;;;21.80;;
39078;SDS011;24829;49.208;12.080;2023-02-15T07:31:38;71.35;;;18.45;;
39078;SDS011;24829;49.208;12.080;2023-02-15T07:34:05;141.60;;;22.02;;
39078;SDS011;24829;49.208;12.080;2023-02-15T07:36:31;80.95;;;20.30;;
39078;SDS011;24829;49.208;12.080;2023-02-15T07:38:57;233.43;;;30.48;;
39078;SDS011;24829;49.208;12.080;2023-02-15T07:41:22;105.18;;;21.45;;
39078;SDS011;24829;49.208;12.080;2023-02-15T07:43:48;110.18;;;21.90;;
39078;SDS011;24829;49.208;12.080;2023-02-15T07:46:15;116.57;;;21.45;;
39078;SDS011;24829;49.208;12.080;2023-02-15T07:48:42;121.32;;;23.08;;
39078;SDS011;24829;49.208;12.080;2023-02-15T07:51:08;75.63;;;18.48;;
39078;SDS011;24829;49.208;12.080;2023-02-15T07:53:35;163.57;;;23.13;;
39078;SDS011;24829;49.208;12.080;2023-02-15T07:56:09;120.43;;;20.42;;
39078;SDS011;24829;49.208;12.080;2023-02-15T07:58:36;91.80;;;20.17;;
39078;SDS011;24829;49.208;12.080;2023-02-15T08:01:24;91.50;;;19.10;;
39078;SDS011;24829;49.208;12.080;2023-02-15T08:03:52;87.70;;;19.90;;
39078;SDS011;24829;49.208;12.080;2023-02-15T08:06:19;63.85;;;18.50;;
39078;SDS011;24829;49.208;12.080;2023-02-15T08:08:46;110.03;;;19.83;;
39078;SDS011;24829;49.208;12.080;2023-02-15T08:16:46;46.55;;;15.38;;
39078;SDS011;24829;49.208;12.080;2023-02-15T08:21:51;73.40;;;15.63;;
39078;SDS011;24829;49.208;12.080;2023-02-15T08:24:27;164.30;;;19.50;;
39078;SDS011;24829;49.208;12.080;2023-02-15T08:26:53;97.25;;;18.17;;
39078;SDS011;24829;49.208;12.080;2023-02-15T08:29:20;60.97;;;16.48;;
39078;SDS011;24829;49.208;12.080;2023-02-15T08:31:48;151.95;;;19.90;;
39078;SDS011;24829;49.208;12.080;2023-02-15T08:34:18;82.47;;;17.05;;
39078;SDS011;24829;49.208;12.080;2023-02-15T08:36:44;101.82;;;19.38;;
39078;SDS011;24829;49.208;12.080;2023-02-15T08:39:11;101.35;;;17.10;;
39078;SDS011;24829;49.208;12.080;2023-02-15T08:41:39;117.10;;;19.13;;
39078;SDS011;24829;49.208;12.080;2023-02-15T08:44:08;72.45;;;15.30;;
39078;SDS011;24829;49.208;12.080;2023-02-15T08:46:36;51.78;;;17.05;;
39078;SDS011;24829;49.208;12.080;2023-02-15T08:49:06;115.07;;;18.53;;
39078;SDS011;24829;49.208;12.080;2023-02-15T08:51:34;67.60;;;15.05;;
39078;SDS011;24829;49.208;12.080;2023-02-15T08:54:02;60.45;;;15.07;;
39078;SDS011;24829;49.208;12.080;2023-02-15T08:56:32;50.38;;;14.75;;
39078;SDS011;24829;49.208;12.080;2023-02-15T08:58:59;69.13;;;15.93;;
39078;SDS011;24829;49.208;12.080;2023-02-15T09:01:26;59.47;;;15.48;;
39078;SDS011;24829;49.208;12.080;2023-02-15T09:04:00;84.15;;;16.13;;
39078;SDS011;24829;49.208;12.080;2023-02-15T09:06:29;74.90;;;16.08;;
39078;SDS011;24829;49.208;12.080;2023-02-15T09:08:55;85.05;;;16.80;;
39078;SDS011;24829;49.208;12.080;2023-02-15T09:11:22;60.58;;;14.38;;
39078;SDS011;24829;49.208;12.080;2023-02-15T09:13:51;45.33;;;14.10;;
39078;SDS011;24829;49.208;12.080;2023-02-15T09:16:18;48.10;;;14.55;;
39078;SDS011;24829;49.208;12.080;2023-02-15T09:18:45;41.42;;;13.57;;
39078;SDS011;24829;49.208;12.080;2023-02-15T09:21:15;48.58;;;14.75;;
39078;SDS011;24829;49.208;12.080;2023-02-15T09:23:43;45.42;;;14.13;;
39078;SDS011;24829;49.208;12.080;2023-02-15T09:26:11;46.72;;;14.57;;
39078;SDS011;24829;49.208;12.080;2023-02-15T09:28:38;60.75;;;13.63;;
39078;SDS011;24829;49.208;12.080;2023-02-15T09:31:08;60.72;;;15.90;;
39078;SDS011;24829;49.208;12.080;2023-02-15T09:36:03;53.22;;;13.35;;
39078;SDS011;24829;49.208;12.080;2023-02-15T09:38:29;40.88;;;14.93;;
39078;SDS011;24829;49.208;12.080;2023-02-15T09:46:29;65.22;;;16.10;;
39078;SDS011;24829;49.208;12.080;2023-02-15T09:49:53;54.40;;;13.70;;
39078;SDS011;24829;49.208;12.080;2023-02-15T09:52:17;61.50;;;14.23;;
39078;SDS011;24829;49.208;12.080;2023-02-15T10:03:19;49.78;;;15.73;;
39078;SDS011;24829;49.208;12.080;2023-02-15T10:08:28;46.42;;;16.00;;
39078;SDS011;24829;49.208;12.080;2023-02-15T10:20:09;49.03;;;16.60;;
39078;SDS011;24829;49.208;12.080;2023-02-15T10:28:06;49.95;;;16.85;;
39078;SDS011;24829;49.208;12.080;2023-02-15T10:30:46;59.17;;;16.45;;
39078;SDS011;24829;49.208;12.080;2023-02-15T10:47:13;49.75;;;18.95;;
39078;SDS011;24829;49.208;12.080;2023-02-15T10:53:06;51.35;;;17.75;;
39078;SDS011;24829;49.208;12.080;2023-02-15T10:55:49;55.72;;;18.45;;
39078;SDS011;24829;49.208;12.080;2023-02-15T11:01:13;54.92;;;19.00;;
39078;SDS011;24829;49.208;12.080;2023-02-15T11:06:20;56.08;;;18.83;;
39078;SDS011;24829;49.208;12.080;2023-02-15T11:08:50;54.20;;;20.85;;
39078;SDS011;24829;49.208;12.080;2023-02-15T11:11:25;48.80;;;20.13;;
39078;SDS011;24829;49.208;12.080;2023-02-15T11:14:02;47.97;;;19.08;;
39078;SDS011;24829;49.208;12.080;2023-02-15T11:16:38;47.90;;;20.33;;
39078;SDS011;24829;49.208;12.080;2023-02-15T11:19:28;56.55;;;18.17;;
39078;SDS011;24829;49.208;12.080;2023-02-15T11:22:01;50.28;;;19.55;;
39078;SDS011;24829;49.208;12.080;2023-02-15T11:24:30;49.45;;;20.17;;
39078;SDS011;24829;49.208;12.080;2023-02-15T11:35:26;50.55;;;18.33;;
39078;SDS011;24829;49.208;12.080;2023-02-15T11:38:06;52.13;;;20.53;;
39078;SDS011;24829;49.208;12.080;2023-02-15T11:43:23;55.72;;;19.98;;
39078;SDS011;24829;49.208;12.080;2023-02-15T11:45:54;54.70;;;20.15;;
39078;SDS011;24829;49.208;12.080;2023-02-15T11:48:19;49.97;;;20.08;;
39078;SDS011;24829;49.208;12.080;2023-02-15T11:50:45;52.67;;;19.85;;
39078;SDS011;24829;49.208;12.080;2023-02-15T11:55:38;47.45;;;18.75;;
39078;SDS011;24829;49.208;12.080;2023-02-15T11:58:05;46.75;;;19.10;;
39078;SDS011;24829;49.208;12.080;2023-02-15T12:00:35;41.90;;;19.02;;
39078;SDS011;24829;49.208;12.080;2023-02-15T12:03:07;63.60;;;20.07;;
39078;SDS011;24829;49.208;12.080;2023-02-15T12:05:57;43.95;;;19.27;;
39078;SDS011;24829;49.208;12.080;2023-02-15T12:08:26;44.67;;;19.17;;
39078;SDS011;24829;49.208;12.080;2023-02-15T12:11:06;44.65;;;19.55;;
39078;SDS011;24829;49.208;12.080;2023-02-15T12:13:59;48.67;;;21.63;;
39078;SDS011;24829;49.208;12.080;2023-02-15T12:16:28;58.60;;;19.73;;
39078;SDS011;24829;49.208;12.080;2023-02-15T12:18:58;39.92;;;19.95;;
39078;SDS011;24829;49.208;12.080;2023-02-15T12:21:30;44.53;;;20.30;;
39078;SDS011;24829;49.208;12.080;2023-02-15T12:24:09;46.00;;;20.13;;
39078;SDS011;24829;49.208;12.080;2023-02-15T12:26:44;63.03;;;19.77;;
39078;SDS011;24829;49.208;12.080;2023-02-15T12:29:20;47.92;;;19.17;;
39078;SDS011;24829;49.208;12.080;2023-02-15T12:31:51;46.92;;;20.15;;
39078;SDS011;24829;49.208;12.080;2023-02-15T12:34:28;81.55;;;21.05;;
39078;SDS011;24829;49.208;12.080;2023-02-15T12:36:56;62.95;;;19.27;;
39078;SDS011;24829;49.208;12.080;2023-02-15T12:39:27;66.50;;;20.50;;
39078;SDS011;24829;49.208;12.080;2023-02-15T12:41:58;51.95;;;20.08;;
39078;SDS011;24829;49.208;12.080;2023-02-15T12:44:52;55.65;;;20.90;;
39078;SDS011;24829;49.208;12.080;2023-02-15T12:47:27;55.88;;;19.42;;
39078;SDS011;24829;49.208;12.080;2023-02-15T12:52:48;45.50;;;20.60;;
39078;SDS011;24829;49.208;12.080;2023-02-15T12:57:46;50.95;;;21.92;;
39078;SDS011;24829;49.208;12.080;2023-02-15T13:02:50;54.40;;;21.30;;
39078;SDS011;24829;49.208;12.080;2023-02-15T13:07:58;49.85;;;20.92;;
39078;SDS011;24829;49.208;12.080;2023-02-15T13:11:00;46.65;;;20.58;;
39078;SDS011;24829;49.208;12.080;2023-02-15T13:13:30;44.83;;;21.00;;
39078;SDS011;24829;49.208;12.080;2023-02-15T13:16:02;63.50;;;22.42;;
39078;SDS011;24829;49.208;12.080;2023-02-15T13:18:39;47.58;;;21.52;;
39078;SDS011;24829;49.208;12.080;2023-02-15T13:21:12;49.65;;;21.40;;
39078;SDS011;24829;49.208;12.080;2023-02-15T13:24:05;52.28;;;21.42;;
39078;SDS011;24829;49.208;12.080;2023-02-15T13:26:40;62.53;;;21.23;;
39078;SDS011;24829;49.208;12.080;2023-02-15T13:29:15;44.47;;;20.77;;
39078;SDS011;24829;49.208;12.080;2023-02-15T13:31:46;50.28;;;20.73;;
39078;SDS011;24829;49.208;12.080;2023-02-15T13:34:17;48.15;;;20.77;;
39078;SDS011;24829;49.208;12.080;2023-02-15T13:36:49;53.28;;;21.73;;
39078;SDS011;24829;49.208;12.080;2023-02-15T13:44:45;50.45;;;21.02;;
39078;SDS011;24829;49.208;12.080;2023-02-15T13:47:21;51.63;;;22.40;;
39078;SDS011;24829;49.208;12.080;2023-02-15T13:49:54;55.58;;;20.65;;
39078;SDS011;24829;49.208;12.080;2023-02-15T13:52:53;49.95;;;21.60;;
39078;SDS011;24829;49.208;12.080;2023-02-15T13:55:31;60.88;;;22.42;;
39078;SDS011;24829;49.208;12.080;2023-02-15T14:21:17;62.70;;;27.45;;
39078;SDS011;24829;49.208;12.080;2023-02-15T14:26:35;47.38;;;20.98;;
39078;SDS011;24829;49.208;12.080;2023-02-15T14:32:00;50.72;;;21.83;;
39078;SDS011;24829;49.208;12.080;2023-02-15T14:34:52;57.40;;;24.40;;
39078;SDS011;24829;49.208;12.080;2023-02-15T14:37:33;54.20;;;22.90;;
39078;SDS011;24829;49.208;12.080;2023-02-15T14:43:10;49.97;;;23.38;;
39078;SDS011;24829;49.208;12.080;2023-02-15T14:45:54;56.33;;;21.75;;
39078;SDS011;24829;49.208;12.080;2023-02-15T14:48:25;55.58;;;22.52;;
39078;SDS011;24829;49.208;12.080;2023-02-15T14:50:51;60.05;;;23.58;;
39078;SDS011;24829;49.208;12.080;2023-02-15T14:53:25;110.97;;;25.77;;
39078;SDS011;24829;49.208;12.080;2023-02-15T14:58:35;66.07;;;24.30;;
39078;SDS011;24829;49.208;12.080;2023-02-15T15:01:28;66.88;;;25.42;;
39078;SDS011;24829;49.208;12.080;2023-02-15T15:04:00;63.83;;;24.52;;
39078;SDS011;24829;49.208;12.080;2023-02-15T15:06:34;75.63;;;26.52;;
39078;SDS011;24829;49.208;12.080;2023-02-15T15:09:19;61.55;;;24.60;;
39078;SDS011;24829;49.208;12.080;2023-02-15T15:11:51;61.72;;;24.40;;
39078;SDS011;24829;49.208;12.080;2023-02-15T15:16:56;53.72;;;24.83;;
39078;SDS011;24829;49.208;12.080;2023-02-15T15:25:12;70.75;;;27.13;;
39078;SDS011;24829;49.208;12.080;2023-02-15T15:28:05;67.18;;;26.63;;
39078;SDS011;24829;49.208;12.080;2023-02-15T15:35:51;72.20;;;26.55;;
39078;SDS011;24829;49.208;12.080;2023-02-15T15:41:40;67.60;;;27.40;;
39078;SDS011;24829;49.208;12.080;2023-02-15T15:49:48;62.25;;;26.75;;
39078;SDS011;24829;49.208;12.080;2023-02-15T15:52:15;66.97;;;29.17;;
39078;SDS011;24829;49.208;12.080;2023-02-15T15:54:46;66.25;;;27.65;;
39078;SDS011;24829;49.208;12.080;2023-02-15T15:59:48;58.10;;;25.10;;
39078;SDS011;24829;49.208;12.080;2023-02-15T16:02:14;72.78;;;27.70;;
39078;SDS011;24829;49.208;12.080;2023-02-15T16:04:41;57.90;;;25.80;;
39078;SDS011;24829;49.208;12.080;2023-02-15T16:12:25;53.10;;;24.30;;
39078;SDS011;24829;49.208;12.080;2023-02-15T16:14:54;53.53;;;24.80;;
39078;SDS011;24829;49.208;12.080;2023-02-15T16:17:22;54.58;;;24.15;;
39078;SDS011;24829;49.208;12.080;2023-02-15T16:19:56;62.67;;;27.40;;
39078;SDS011;24829;49.208;12.080;2023-02-15T16:22:26;78.32;;;33.35;;
39078;SDS011;24829;49.208;12.080;2023-02-15T16:25:37;67.50;;;27.52;;
39078;SDS011;24829;49.208;12.080;2023-02-15T16:28:05;69.22;;;24.83;;
39078;SDS011;24829;49.208;12.080;2023-02-15T16:30:34;67.80;;;26.17;;
39078;SDS011;24829;49.208;12.080;2023-02-15T16:35:37;90.22;;;33.33;;
39078;SDS011;24829;49.208;12.080;2023-02-15T16:38:06;83.82;;;31.35;;
39078;SDS011;24829;49.208;12.080;2023-02-15T16:40:38;122.78;;;35.50;;
39078;SDS011;24829;49.208;12.080;2023-02-15T16:43:10;101.70;;;33.53;;
39078;SDS011;24829;49.208;12.080;2023-02-15T16:45:39;81.53;;;31.73;;
39078;SDS011;24829;49.208;12.080;2023-02-15T16:48:07;66.25;;;29.45;;
39078;SDS011;24829;49.208;12.080;2023-02-15T16:50:40;70.00;;;29.27;;
39078;SDS011;24829;49.208;12.080;2023-02-15T16:53:14;64.57;;;27.02;;
39078;SDS011;24829;49.208;12.080;2023-02-15T16:55:55;70.85;;;27.77;;
39078;SDS011;24829;49.208;12.080;2023-02-15T16:58:27;96.80;;;43.58;;
39078;SDS011;24829;49.208;12.080;2023-02-15T17:00:57;105.25;;;46.90;;
39078;SDS011;24829;49.208;12.080;2023-02-15T17:03:24;91.70;;;39.28;;
39078;SDS011;24829;49.208;12.080;2023-02-15T17:05:52;80.95;;;32.17;;
39078;SDS011;24829;49.208;12.080;2023-02-15T17:08:32;69.75;;;28.95;;
39078;SDS011;24829;49.208;12.080;2023-02-15T17:13:37;73.45;;;29.95;;
39078;SDS011;24829;49.208;12.080;2023-02-15T17:18:43;73.60;;;32.40;;
39078;SDS011;24829;49.208;12.080;2023-02-15T17:21:16;68.40;;;25.33;;
39078;SDS011;24829;49.208;12.080;2023-02-15T17:23:45;90.63;;;30.58;;
39078;SDS011;24829;49.208;12.080;2023-02-15T17:26:20;107.13;;;36.00;;
39078;SDS011;24829;49.208;12.080;2023-02-15T17:28:52;76.68;;;32.00;;
39078;SDS011;24829;49.208;12.080;2023-02-15T17:31:24;90.68;;;30.35;;
39078;SDS011;24829;49.208;12.080;2023-02-15T17:33:53;66.75;;;27.45;;
39078;SDS011;24829;49.208;12.080;2023-02-15T17:36:21;69.22;;;28.88;;
39078;SDS011;24829;49.208;12.080;2023-02-15T17:43:52;58.05;;;25.42;;
39078;SDS011;24829;49.208;12.080;2023-02-15T17:46:17;68.07;;;27.25;;